Time,TemperatureF,DewpointF,PressureIn,WindDirection,WindDirectionDegrees,WindSpeedMPH,WindSpeedGustMPH,Humidity,HourlyPrecipIn,Conditions,Clouds,dailyrainin,SolarRadiationWatts/m^2,SoftwareType,DateUTC
2013-06-12 00:22:00,52.0,49.0,29.91,South,187,5.0,-999.0,90,-99.99,,,-99.99,0.000000,,2013-06-12 07:22:00,
2013-06-12 00:33:00,52.0,49.0,29.91,South,187,5.0,-999.0,90,-99.99,,,-99.99,0.000000,,2013-06-12 07:33:00,
2013-06-12 00:43:00,52.0,49.0,29.91,South,187,5.0,-999.0,90,-99.99,,,-99.99,0.000000,,2013-06-12 07:43:00,
2013-06-12 00:53:00,52.0,49.0,29.91,South,187,5.0,-999.0,90,-99.99,,,-99.99,0.000000,,2013-06-12 07:53:00,
2013-06-12 01:01:00,52.0,49.0,29.91,South,187,5.0,-999.0,90,-99.99,,,-99.99,0.000000,,2013-06-12 08:01:00,
2013-06-12 02:22:00,52.0,49.0,29.91,SSW,198,5.0,-999.0,91,-99.99,,,-99.99,0.000000,,2013-06-12 09:22:00,
2013-06-12 02:33:00,52.0,49.0,29.91,SSW,198,5.0,-999.0,91,-99.99,,,-99.99,0.000000,,2013-06-12 09:33:00,
2013-06-12 02:43:00,52.0,49.0,29.91,SSW,198,5.0,-999.0,91,-99.99,,,-99.99,0.000000,,2013-06-12 09:43:00,
2013-06-12 02:53:00,52.0,49.0,29.91,SSW,198,5.0,-999.0,91,-99.99,,,-99.99,0.000000,,2013-06-12 09:53:00,
2013-06-12 03:01:00,52.0,49.0,29.91,SSW,198,5.0,-999.0,91,-99.99,,,-99.99,0.000000,,2013-06-12 10:01:00,
2013-06-12 04:24:00,51.0,48.0,29.91,SW,221,7.0,-999.0,91,-99.99,,,-99.99,0.000000,,2013-06-12 11:24:00,
2013-06-12 04:33:00,51.0,48.0,29.91,SW,221,7.0,-999.0,91,-99.99,,,-99.99,0.000000,,2013-06-12 11:33:00,
2013-06-12 04:43:00,51.0,48.0,29.91,SW,221,7.0,-999.0,91,-99.99,,,-99.99,0.000000,,2013-06-12 11:43:00,
2013-06-12 04:53:00,51.0,48.0,29.91,SW,221,7.0,-999.0,91,-99.99,,,-99.99,0.000000,,2013-06-12 11:53:00,
2013-06-12 05:01:00,51.0,48.0,29.91,SW,221,7.0,-999.0,91,-99.99,,,-99.99,0.000000,,2013-06-12 12:01:00,
2013-06-12 06:22:00,50.0,48.0,29.93,SW,233,4.0,-999.0,93,-99.99,,,-99.99,14.000000,,2013-06-12 13:22:00,
2013-06-12 06:33:00,50.0,48.0,29.93,SW,233,4.0,-999.0,93,-99.99,,,-99.99,14.000000,,2013-06-12 13:33:00,
2013-06-12 06:43:00,50.0,48.0,29.93,SW,233,4.0,-999.0,93,-99.99,,,-99.99,14.000000,,2013-06-12 13:43:00,
2013-06-12 06:53:00,50.0,48.0,29.93,SW,233,4.0,-999.0,93,-99.99,,,-99.99,14.000000,,2013-06-12 13:53:00,
2013-06-12 07:01:00,50.0,48.0,29.93,SW,233,4.0,-999.0,93,-99.99,,,-99.99,14.000000,,2013-06-12 14:01:00,
2013-06-12 10:23:00,58.0,51.0,29.97,South,173,5.0,-999.0,77,-99.99,,,-99.99,766.000000,,2013-06-12 17:23:00,
2013-06-12 10:33:00,58.0,51.0,29.97,South,173,5.0,-999.0,77,-99.99,,,-99.99,766.000000,,2013-06-12 17:33:00,
2013-06-12 10:42:00,58.0,51.0,29.97,South,173,5.0,-999.0,77,-99.99,,,-99.99,766.000000,,2013-06-12 17:42:00,
2013-06-12 10:52:00,58.0,51.0,29.97,South,173,5.0,-999.0,77,-99.99,,,-99.99,766.000000,,2013-06-12 17:52:00,
2013-06-12 11:02:00,58.0,51.0,29.97,South,173,5.0,-999.0,77,-99.99,,,-99.99,766.000000,,2013-06-12 18:02:00,
2013-06-12 12:22:00,60.0,50.0,29.97,South,188,9.0,-999.0,70,-99.99,,,-99.99,993.000000,,2013-06-12 19:22:00,
2013-06-12 12:32:00,60.0,50.0,29.97,South,188,9.0,-999.0,70,-99.99,,,-99.99,993.000000,,2013-06-12 19:32:00,
2013-06-12 12:42:00,60.0,50.0,29.97,South,188,9.0,-999.0,70,-99.99,,,-99.99,993.000000,,2013-06-12 19:42:00,
2013-06-12 12:52:00,60.0,50.0,29.97,South,188,9.0,-999.0,70,-99.99,,,-99.99,993.000000,,2013-06-12 19:52:00,
2013-06-12 13:01:00,60.0,50.0,29.97,South,188,9.0,-999.0,70,-99.99,,,-99.99,993.000000,,2013-06-12 20:01:00,
2013-06-12 14:22:00,59.0,51.0,29.96,North,360,19.0,-999.0,76,-99.99,,,-99.99,1002.000000,,2013-06-12 21:22:00,
2013-06-12 14:33:00,59.0,51.0,29.96,North,360,19.0,-999.0,76,-99.99,,,-99.99,1002.000000,,2013-06-12 21:33:00,
2013-06-12 14:43:00,59.0,51.0,29.96,North,360,19.0,-999.0,76,-99.99,,,-99.99,1002.000000,,2013-06-12 21:43:00,
2013-06-12 14:53:00,59.0,51.0,29.96,North,360,19.0,-999.0,76,-99.99,,,-99.99,1002.000000,,2013-06-12 21:53:00,
2013-06-12 15:01:00,59.0,51.0,29.96,North,360,19.0,-999.0,76,-99.99,,,-99.99,1002.000000,,2013-06-12 22:01:00,
2013-06-12 16:22:00,58.0,50.0,29.96,WSW,240,28.0,-999.0,74,-99.99,,,-99.99,789.000000,,2013-06-12 23:22:00,
2013-06-12 16:32:00,58.0,50.0,29.96,WSW,240,28.0,-999.0,74,-99.99,,,-99.99,789.000000,,2013-06-12 23:32:00,
2013-06-12 16:42:00,58.0,50.0,29.96,WSW,240,28.0,-999.0,74,-99.99,,,-99.99,789.000000,,2013-06-12 23:42:00,
2013-06-12 16:52:00,58.0,50.0,29.96,WSW,240,28.0,-999.0,74,-99.99,,,-99.99,789.000000,,2013-06-12 23:52:00,
2013-06-12 17:01:00,58.0,50.0,29.96,WSW,240,28.0,-999.0,74,-99.99,,,-99.99,789.000000,,2013-06-13 00:01:00,
2013-06-12 18:22:00,57.0,50.0,29.94,WSW,239,25.0,-999.0,77,-99.99,,,-99.99,415.000000,,2013-06-13 01:22:00,
2013-06-12 18:33:00,57.0,50.0,29.94,WSW,239,25.0,-999.0,77,-99.99,,,-99.99,415.000000,,2013-06-13 01:33:00,
2013-06-12 18:43:00,57.0,50.0,29.94,WSW,239,25.0,-999.0,77,-99.99,,,-99.99,415.000000,,2013-06-13 01:43:00,
2013-06-12 18:53:00,57.0,50.0,29.94,WSW,239,25.0,-999.0,77,-99.99,,,-99.99,415.000000,,2013-06-13 01:53:00,
2013-06-12 19:01:00,57.0,50.0,29.94,WSW,239,25.0,-999.0,77,-99.99,,,-99.99,415.000000,,2013-06-13 02:01:00,
2013-06-12 20:22:00,54.0,49.0,29.96,SW,234,22.0,-999.0,82,-99.99,,,-99.99,19.000000,,2013-06-13 03:22:00,
2013-06-12 20:33:00,54.0,49.0,29.96,SW,234,22.0,-999.0,82,-99.99,,,-99.99,19.000000,,2013-06-13 03:33:00,
2013-06-12 20:43:00,54.0,49.0,29.96,SW,234,22.0,-999.0,82,-99.99,,,-99.99,19.000000,,2013-06-13 03:43:00,
2013-06-12 20:52:00,54.0,49.0,29.96,SW,234,22.0,-999.0,82,-99.99,,,-99.99,19.000000,,2013-06-13 03:52:00,
2013-06-12 21:01:00,54.0,49.0,29.96,SW,234,22.0,-999.0,82,-99.99,,,-99.99,19.000000,,2013-06-13 04:01:00,
2013-06-12 22:24:00,53.0,49.0,29.97,West,269,13.0,-999.0,86,-99.99,,,-99.99,0.000000,,2013-06-13 05:24:00,
2013-06-12 22:33:00,53.0,49.0,29.97,West,269,13.0,-999.0,86,-99.99,,,-99.99,0.000000,,2013-06-13 05:33:00,
2013-06-12 22:43:00,53.0,49.0,29.97,West,269,13.0,-999.0,86,-99.99,,,-99.99,0.000000,,2013-06-13 05:43:00,
2013-06-12 22:53:00,53.0,49.0,29.97,West,269,13.0,-999.0,86,-99.99,,,-99.99,0.000000,,2013-06-13 05:53:00,
2013-06-12 23:01:00,53.0,49.0,29.97,West,269,13.0,-999.0,86,-99.99,,,-99.99,0.000000,,2013-06-13 06:01:00,